Victor, ID (83455)

5:10 AM MST on January 24, 2017 (GMT -0700)
9470 Edgewood Ln | | Change Station

Elev 6400 ft 43.59 °N, 111.09 °W | Updated 41 seconds ago

Snow
Snow
19.8 °F
Feels Like 20 °F
N
0.0
Wind Variable Wind from NE
Gusts 0.0 mph

Today
High -- | Low -- °F
--% Chance of Precip.
Yesterday
High -- | Low -- °F
Precip. -- in
Pressure 29.72 in
Visibility 9.0 miles
Clouds Mostly Cloudy 4000 ft
Overcast 4800 ft
Windchill 20 °F
Dew Point 12 °F
Humidity 72%
Rainfall 0.00 in
Snow Depth Not available.
7:48 AM 5:25 PM
Waning Crescent, 12% visible
METAR KDIJ 241156Z AUTO 17010KT 9SM -SN BKN040 OVC048 M07/M09 A2958 RMK AO2 SLP063 P0000 60001 70001 T10671089 11044 21067 52015
Pressure 29.72 in
Visibility 9.0 miles
Clouds Mostly Cloudy 4000 ft
Overcast 4800 ft
Windchill 20 °F
Dew Point 12 °F
Humidity 72%
Rainfall 0.00 in
Snow Depth Not available.
7:48 AM 5:25 PM
Waning Crescent, 12% visible
METAR KDIJ 241156Z AUTO 17010KT 9SM -SN BKN040 OVC048 M07/M09 A2958 RMK AO2 SLP063 P0000 60001 70001 T10671089 11044 21067 52015

Get Your Daily Forecast Email!

Thanks for signing up!

Be on the lookout for a verification email in your inbox.

You'll start receiving the daily forecast at 8 AM.

×

10-Day Weather Forecast

Almanac

Astronomy

Jan. 24, 2017 Rise Set
Actual Time
Civil Twilight
Nautical Twilight
Astronomical Twilight
Moon
Length of Visible Light
Length of Day
Tomorrow will be .
, % of the Moon is Illuminated

Today's Extremes

State Highs State Lows

Community

WunderPhotos

Upload Photos

1,962,540 photos uploaded!

WunderBlog® & News

Nearby

Air Quality

  Air Quality AQ Index Pollutant
Not available.

Snow Depth

Station Depth Elevation

Earthquake Activity

City Distance Mag. Time & Date
Minimum magnitude displayed is 2.5.

Coastal Water Temperatures

Place Temperature

Stations

Nearby Weather Stations

Station Location Temp. Windchill Dew Point Humidity Wind Precip. Elev Updated Type
                   

Watches & Warnings

There are currently no watches in effect.